Tiempo atmosférico en la estación meteorológica de Don Benito, Badajoz (273 m.)



Fecha
DESCASC
Temp. máxima en grados centígrados (hora)
DESCASC
Temp. mínima en grados centígrados (hora)
DESCASC
Temp. media en grados centígrados
DESCASC
Racha de viento máxima en m/sg (hora)
DESCASC
Velocidad máxima media en intervalos de 10 minutos(hora)
DESCASC
Precipitaciones diarias en mm
DESCASC
Precipitaciones de 00:00 a 06:00 en mm
DESCASC
Precipitaciones de 06:00 a 12:00 en mm
DESCASC
Precipitaciones de 12:00 a 18:00 en mm
DESCASC
Precipitaciones de 18:00 a 24:00 en mm
DESCASC
04-10-2019 28.3 (18:00) 13.9 (00:00) 21.1 8.06 (16:10) 3.61 (16:10) 0 0 0 0 0
17-10-2019 24 (15:40) 10.6 (00:00) 17.3 7.22 (18:30) 3.06 (18:30) 0 0 0 0 0
16-10-2019 22.2 (17:00) 8.3 (00:00) 15.3 5.56 (19:00) 2.5 (16:40) 0 0 0 0 0
15-10-2019 20 (17:00) 8.1 (00:00) 14.1 5.56 (17:40) 2.78 (10:10) 0.2 0.2 0 0 0
14-10-2019 21.9 (15:30) 11.5 (00:00) 16.7 12.5 (16:00) 6.11 (06:40) 8.2 0 4 4.2 0
13-10-2019 29.2 (17:10) 14 (00:00) 21.6 6.39 (15:30) 3.33 (00:50) 0 0 0 0 0
12-10-2019 31.7 (14:30) 20.5 (00:00) 26.1 12.22 (15:50) 5.28 (15:50) 1.2 0 0 1.2 0
11-10-2019 32.5 (15:50) 17.4 (00:00) 24.9 6.39 (11:20) 3.33 (11:40) 0 0 0 0 0
10-10-2019 32.2 (16:30) 13.4 (00:00) 22.8 5 (16:30) 2.22 (01:50) 0 0 0 0 0
09-10-2019 31.8 (17:30) 16.8 (00:00) 24.3 7.22 (16:30) 3.33 (10:20) 0 0 0 0 0
08-10-2019 34.9 (16:30) 15 (00:00) 25 4.72 (15:20) 1.67 (15:20) 0 0 0 0 0
07-10-2019 32.5 (15:50) 13.5 (00:00) 23 5.28 (04:10) 2.5 (04:10) 0 0 0 0 0
06-10-2019 31.1 (17:50) 12.2 (00:00) 21.7 5.28 (17:40) 2.78 (07:30) 0 0 0 0 0
05-10-2019 28.3 (17:00) 12.8 (00:00) 20.5 6.94 (15:20) 3.33 (04:30) 0 0 0 0 0
03-10-2019 30.1 (16:50) 12.6 (00:00) 21.4 7.78 (18:40) 4.17 (18:20) 0 0 0 0 0
02-10-2019 29.2 (17:10) 12.2 (00:00) 20.7 8.61 (18:00) 4.44 (18:10) 0 0 0 0 0
01-10-2019 28.4 (15:20) 16 (00:00) 22.2 12.78 (17:30) 4.17 (16:40) 0 0 0 0 0
30-09-2019 33.7 (16:50) 14.9 (00:00) 24.3 6.39 (19:10) 2.5 (19:10) 0 0 0 0 0
29-09-2019 33.6 (17:00) 14.9 (00:00) 24.2 6.94 (17:50) 2.78 (18:40) 0 0 0 0 0
28-09-2019 33.2 (17:10) 13.5 (00:00) 23.4 5.83 (16:30) 3.06 (02:30) 0 0 0 0 0
27-09-2019 32.4 (17:10) 15.2 (00:00) 23.8 5.83 (19:20) 2.5 (19:00) 0 0 0 0 0
26-09-2019 30.9 (17:10) 14.5 (00:00) 22.7 5.56 (15:50) 2.5 (07:20) 0 0 0 0 0
25-09-2019 28.3 (17:50) 14 (00:00) 21.1 8.61 (16:40) 3.33 (01:00) 0 0 0 0 0
24-09-2019 29.6 (16:30) 13.6 (00:00) 21.6 9.17 (16:30) 3.89 (17:40) 0 0 0 0 0
23-09-2019 27.5 (18:10) 12.9 (00:00) 20.2 5.28 (17:40) 2.22 (05:10) 0 0 0 0 0
22-09-2019 24.8 (17:40) 14.5 (00:00) 19.6 10.28 (02:00) 3.89 (02:30) 1 0.8 0.2 0 0
18-10-2019 23.1 (16:30) 14.3 (00:00) 18.7 10 (16:10) 5 (16:10) 0 0 0 0 0
21-09-2019 24.6 (17:40) 17.9 (00:00) 21.3 9.72 (22:50) 5.56 (16:10) 1 0 0.2 0 0.8
20-09-2019 29.2 (16:30) 16.9 (00:00) 23.1 10 (14:30) 5 (17:30) 2.6 0 0 0 2.6
19-10-2019 22.8 (17:40) 11.6 (00:00) 17.2 14.17 (18:40) 8.33 (18:40) 2.8 0 0 0.2 2.6

Gráficas

Temp. máximas Temp. mínimas Temp. medias Precipitaciones Rachas de viento máximas Velocidades máximas media en intervalos de 10 minutos

Datos horarios

Fecha y hora oficial Temperatura (ºC) Velocidad del viento (km/h) Dirección del viento Racha (km/h) Dirección de racha Precipitación (mm) Presión (hPa) Tendencia (hPa) Humedad (%)
2019-10-19 23:00:00 14.6 15 Oeste 38 Oeste 0 975.5 2.1 85
2019-10-19 22:00:00 15.8 16 Oeste 35 Oeste 0.8 974.7 1.3 89
2019-10-19 21:00:00 16.9 13 Sudoeste 33 Sudoeste 1.8 973.3 -0.2 88
2019-10-19 20:00:00 18 21 Sur 42 Sur 0 973.4 -1 79
2019-10-19 19:00:00 20.1 24 Sudoeste 51 Sudoeste 0 973.4 -2.1 62
2019-10-19 18:00:00 22.2 21 Sudoeste 41 Sudoeste 0 973.5 -3.3 43
2019-10-19 17:00:00 21.8 20 Sur 42 Sudoeste 0 974.4 -3.9 47
2019-10-19 16:00:00 21.1 18 Sudoeste 37 Sudoeste 0 975.5 -3.7 53
2019-10-19 15:00:00 19.8 14 Sudoeste 31 Sudoeste 0 976.8 -3.2 62
2019-10-19 14:00:00 16.7 3 Noroeste 10 Sudeste 0 978.3 -2 86
2019-10-19 13:00:00 15 5 Sudeste 18 Sudeste 0.2 979.2 -1.1 89
2019-10-19 12:00:00 14.7 11 Sudeste 26 Sur 0 980 -0.4 87
2019-10-19 11:00:00 16.6 9 Sudeste 19 Sudeste 0 980.3 -0.9 62
2019-10-19 10:00:00 14.6 8 Sudeste 15 Sudeste 0 980.3 -1 71
2019-10-19 09:00:00 12.7 4 Sudeste 8 Sudeste 0 980.4 -1.1 78
2019-10-19 08:00:00 11.8 2 Norte 6 Sur 0 981.2 -1.2 84
2019-10-19 07:00:00 12 4 Sur 10 Sur 0 981.3 -1 82
2019-10-19 06:00:00 12 3 Sudeste 10 Oeste 0 981.5 -1.5 82
2019-10-19 05:00:00 12.4 3 Oeste 10 Sudoeste 0 982.4 -0.9 81
2019-10-19 04:00:00 12.7 5 Sur 12 Sur 0 982.3 -1.1 77
2019-10-19 03:00:00 12.6 5 Sudoeste 12 Sudoeste 0 983 -0.8 75
2019-10-19 02:00:00 13.2 6 Sudoeste 11 Sur 0 983.3 -0.6 72
2019-10-19 01:00:00 13.7 5 Sudoeste 9 Sudoeste 0 983.4 -0.4 70
2019-10-19 00:00:00 14.3 5 Sudoeste 11 Sudoeste 0 983.8 0.1 70
2019-10-18 23:00:00 15.5 5 Oeste 10 Oeste 0 983.9 0.6 67
2019-10-18 22:00:00 16.3 4 Oeste 10 Sudoeste 0 983.8 0.6 64
2019-10-18 21:00:00 17 4 Oeste 10 Oeste 0 983.7 -0.1 62
2019-10-18 20:00:00 18.7 5 Oeste 20 Oeste 0 983.3 -0.9 55
2019-10-18 19:00:00 21 8 Oeste 27 Sudoeste 0 983.2 -1.3 47
2019-10-18 18:00:00 22 8 Oeste 33 Oeste 0 983.8 -1.2 48
2019-10-18 17:00:00 22.3 16 Sudoeste 36 Sudoeste 0 984.2 -1.8 48
2019-10-18 16:00:00 22.2 15 Sudoeste 32 Sudoeste 0 984.5 -1.9 52
2019-10-18 15:00:00 21.6 14 Oeste 30 Sudoeste 0 985 -1.3 58
2019-10-18 14:00:00 21.6 15 Oeste 31 Oeste 0 986 -0.5 61
2019-10-18 13:00:00 21.8 16 Oeste 35 Oeste 0 986.4 0.2 67
2019-10-18 12:00:00 21.5 11 Sudoeste 23 Oeste 0 986.3 0.6 66
2019-10-18 11:00:00 19.6 8 Sudoeste 21 Sudoeste 0 986.5 0.6 74
2019-10-18 10:00:00 18.9 9 Sudoeste 15 Sudoeste 0 986.2 0 77
2019-10-18 09:00:00 17.8 4 Sur 10 Sudeste 0 985.7 -0.4 83
2019-10-18 08:00:00 17.2 4 Sur 8 Sur 0 985.9 0 86
2019-10-18 07:00:00 16.9 2 Oeste 14 Noroeste 0 986.2 -0.3 87
2019-10-18 06:00:00 16.9 7 Sur 12 Sur 0 986.1 -0.7 85
2019-10-18 05:00:00 16.7 5 Sur 10 Sur 0 985.9 -1.1 87
2019-10-18 04:00:00 16.7 0 Calma 5 Noroeste 0 986.5 -1 88
2019-10-18 03:00:00 17.1 0 Calma 9 Sudoeste 0 986.8 -0.8 86
2019-10-18 02:00:00 18 2 Sur 10 Sudoeste 0 987 -0.5 85
2019-10-18 01:00:00 18.4 6 Sudoeste 15 Sudoeste 0 987.5 0.1 83
2019-10-18 00:00:00 18.7 6 Sudoeste 18 Sudoeste 0 987.6 0.6 84
2019-10-17 23:00:00 18.6 8 Sudoeste 18 Sudoeste 0 987.5 0.8 85
2019-10-17 22:00:00 18.7 3 Noroeste 7 Noroeste 0 987.4 0.9 84
2019-10-17 21:00:00 19 3 Sudoeste 7 Oeste 0 987 0.8 81
2019-10-17 20:00:00 19.2 3 Oeste 14 Oeste 0 986.7 0.3 80
2019-10-17 19:00:00 19.3 7 Noroeste 26 Oeste 0 986.5 -0.2 81
2019-10-17 18:00:00 22.2 8 Oeste 21 Oeste 0 986.2 -1.1 56
2019-10-17 17:00:00 22.4 5 Oeste 18 Sudoeste 0 986.4 -1.6 55
2019-10-17 16:00:00 23.1 7 Sudoeste 18 Oeste 0 986.7 -1.6 48
2019-10-17 15:00:00 22 5 Oeste 21 Sudoeste 0 987.3 -1.3 53
2019-10-17 14:00:00 21.2 8 Sudoeste 21 Sudoeste 0 988 -0.4 53
2019-10-17 13:00:00 20.2 3 Norte 11 Sudoeste 0 988.3 -0.2 54
2019-10-17 12:00:00 17.1 3 Noroeste 9 Sudeste 0 988.6 0.9 66
2019-10-17 11:00:00 14.8 6 Sudeste 15 Sudeste 0 988.4 1.1 72
2019-10-17 10:00:00 13.2 3 Norte 7 Este 0 988.5 1.3 75
2019-10-17 09:00:00 12.3 2 Oeste 8 Sudeste 0 987.7 0.8 79
2019-10-17 08:00:00 11.5 3 Sudeste 5 Sudeste 0 987.3 0.4 79
2019-10-17 07:00:00 10.7 0 Calma 5 Sudoeste 0 987.2 0.2 81
2019-10-17 06:00:00 10.6 2 Oeste 6 Noroeste 0 986.9 -0.3 79
2019-10-17 05:00:00 11.2 3 Oeste 12 Sudoeste 0 986.9 -0.4 76
2019-10-17 04:00:00 11.4 5 Sudoeste 10 Sudoeste 0 987 -0.2 73
2019-10-17 03:00:00 11.7 3 Sur 9 Sudoeste 0 987.2 -0.4 73
2019-10-17 02:00:00 12.9 5 Sudoeste 15 Noroeste 0 987.3 -0.2 66
2019-10-17 01:00:00 13.5 7 Sudeste 13 Sudeste 0 987.2 -0.2 63
2019-10-17 00:00:00 14.2 5 Sudeste 10 Sudeste 0 987.6 0.4 59
2019-10-16 23:00:00 14.5 5 Sudeste 8 Sudeste 0 987.5 0.7 59
2019-10-16 22:00:00 14.8 2 Sudeste 4 Sudeste 0 987.4 0.5 59
2019-10-16 21:00:00 15.9 3 Noroeste 5 Noroeste 0 987.2 0.7 54
2019-10-16 20:00:00 17.6 3 Noroeste 14 Noroeste 0 986.8 0.2 49
2019-10-16 19:00:00 19.9 9 Noroeste 20 Noroeste 0 986.9 -0.4 38
2019-10-16 18:00:00 21.2 6 Oeste 19 Oeste 0 986.5 -1.8 34
2019-10-16 17:00:00 22.1 5 Oeste 18 Sudoeste 0 986.6 -2.6 33
2019-10-16 16:00:00 21.7 5 Oeste 16 Oeste 0 987.3 -2.5 33
2019-10-16 15:00:00 20.7 6 Sudoeste 17 Oeste 0 988.3 -2.1 39
2019-10-16 14:00:00 19.9 4 Sudoeste 12 Sudoeste 0 989.2 -1.3 40
2019-10-16 13:00:00 18.2 3 Nordeste 10 Oeste 0 989.8 -0.4 51
2019-10-16 12:00:00 16.5 3 Sudoeste 9 Sur 0 990.4 0.8 57
2019-10-16 11:00:00 14.5 3 Sudoeste 7 Sudeste 0 990.5 1.1 63
2019-10-16 10:00:00 11.9 2 Sur 5 Sur 0 990.2 1.2 76
2019-10-16 09:00:00 8.4 0 Calma 6 Sur 0 989.6 0.8 88
2019-10-16 08:00:00 8.6 2 Sudeste 4 Sur 0 989.4 0.3 86
2019-10-16 07:00:00 8.9 0 Calma 8 Sudeste 0 989 -0.4 85
2019-10-16 06:00:00 9.2 3 Sudeste 7 Sudeste 0 988.8 -1 84
2019-10-16 05:00:00 9.2 4 Sudeste 10 Noroeste 0 989.1 -0.7 85
2019-10-16 04:00:00 10.3 2 Nordeste 4 Nordeste 0 989.4 -0.6 84
2019-10-16 03:00:00 10.8 2 Norte 6 Norte 0 989.8 -0.3 79
2019-10-16 02:00:00 11.6 0 Calma 8 Sudeste 0 989.8 -0.3 71
2019-10-16 01:00:00 12.8 5 Sudeste 9 Sudeste 0 990 0.2 65
2019-10-16 00:00:00 13.1 5 Sudeste 8 Sudeste 0 990.1 0.6 64
2019-10-15 23:00:00 13.7 4 Sur 6 Sur 0 990.1 0.9 62
2019-10-15 22:00:00 14.1 3 Sur 7 Sur 0 989.8 0.8 62
2019-10-15 21:00:00 14.8 3 Sudoeste 9 Oeste 0 989.5 0.5 60
2019-10-15 20:00:00 16.6 4 Sudoeste 15 Sudoeste 0 989.2 -0.1 51
2019-10-15 19:00:00 18.4 6 Oeste 15 Sudoeste 0 989 -0.5 43
2019-10-15 18:00:00 19.5 6 Sudoeste 20 Oeste 0 989 -1 39
2019-10-15 17:00:00 19.9 7 Oeste 19 Sudoeste 0 989.3 -1.3 39
2019-10-15 16:00:00 19 5 Oeste 15 Noroeste 0 989.5 -1.7 41
2019-10-15 15:00:00 18.7 7 Oeste 17 Oeste 0 990 -1.4 43
2019-10-15 14:00:00 17.7 5 Oeste 14 Oeste 0 990.6 -0.6 49
2019-10-15 13:00:00 16.2 5 Oeste 14 Noroeste 0 991.2 0.5 55
2019-10-15 12:00:00 14.6 5 Oeste 13 Oeste 0 991.4 1.4 68
2019-10-15 11:00:00 12.8 5 Oeste 19 Oeste 0 991.2 1.4 77
2019-10-15 10:00:00 10.8 8 Sudoeste 12 Sudoeste 0 990.7 1.1 83
2019-10-15 09:00:00 8.7 6 Sudoeste 14 Sudoeste 0 990 0.7 90
2019-10-15 08:00:00 8.3 5 Sudoeste 10 Sudoeste 0 989.8 0.7 89
2019-10-15 07:00:00 8.5 5 Sudoeste 12 Sudoeste 0 989.6 0.6 90
2019-10-15 06:00:00 8.5 5 Sudoeste 13 Sudoeste 0 989.3 0.4 88
2019-10-15 05:00:00 8.8 8 Sudoeste 13 Oeste 0.2 989.1 0.2 88
2019-10-15 04:00:00 8.7 4 Sur 12 Sudoeste 0 989 0.4 88
2019-10-15 03:00:00 9.4 5 Oeste 12 Oeste 0 988.9 0.8 87
2019-10-15 02:00:00 9.9 5 Sudoeste 9 Sudoeste 0 988.9 1.4 85
2019-10-15 01:00:00 10.8 4 Oeste 10 Oeste 0 988.6 1.8 84
2019-10-15 00:00:00 11.5 5 Sudoeste 12 Sudoeste 0 988.1 1.8 86
2019-10-14 23:00:00 12.5 6 Sudoeste 16 Sudoeste 0 987.5 1.9 85
2019-10-14 22:00:00 12.6 6 Sudoeste 15 Sudoeste 0 986.8 1.8 84
2019-10-14 21:00:00 13.5 8 Sudoeste 17 Sudoeste 0 986.3 1.5 86
2019-10-14 20:00:00 14.5 8 Sudoeste 17 Sudoeste 0 985.6 1 86
2019-10-14 19:00:00 15.1 8 Sudoeste 18 Sudoeste 0 985 1.5 82
2019-10-14 18:00:00 14.6 9 Sudoeste 28 Oeste 1 984.8 2.2 86
2019-10-14 17:00:00 14.7 9 Oeste 39 Noroeste 3.2 984.6 1.1 89
2019-10-14 16:00:00 16.5 18 Oeste 45 Oeste 0 983.5 -0.5 81
2019-10-14 15:00:00 21.8 20 Sudoeste 40 Sudoeste 0 982.6 -1.4 41
2019-10-14 14:00:00 19.3 13 Oeste 30 Sudoeste 0 983.5 -0.1 55
2019-10-14 13:00:00 19.4 13 Sudoeste 29 Sudoeste 0 984 1.2 55
2019-10-14 12:00:00 17.9 14 Oeste 32 Oeste 0 984 2.6 61
2019-10-14 11:00:00 16.2 6 Oeste 32 Oeste 0 983.6 2.9 80
2019-10-14 10:00:00 16.4 7 Sudoeste 30 Sudoeste 0 982.8 2.3 83
2019-10-14 09:00:00 15.8 13 Sudoeste 32 Sudoeste 0 981.4 1.6 86
2019-10-14 08:00:00 16 17 Sudoeste 33 Sudoeste 4 980.7 2 86
2019-10-14 07:00:00 18.3 17 Sudoeste 40 Sur 0 980.5 1.7 64
2019-10-14 06:00:00 16.1 10 Sudoeste 24 Oeste 0 979.8 1.2 74
2019-10-14 05:00:00 16.7 4 Oeste 19 Oeste 0 978.7 -0.4 70
2019-10-14 04:00:00 17.5 6 Noroeste 13 Noroeste 0 978.8 -0.7 57
2019-10-14 03:00:00 18.4 4 Sudeste 8 Sudeste 0 978.6 -1.4 53
2019-10-14 02:00:00 18.8 4 Oeste 15 Sudoeste 0 979.1 -1.3 53
2019-10-14 01:00:00 20.1 4 Sur 11 Sudoeste 0 979.5 -0.6 45
2019-10-14 00:00:00 21.4 4 Sudoeste 9 Sudeste 0 980 -0.2 42
2019-10-13 23:00:00 21.4 6 Sur 10 Sur 0 980.4 0.3 42
2019-10-13 22:00:00 21.3 2 Sur 7 Sudoeste 0 980.1 0 44
2019-10-13 21:00:00 23.3 2 Nordeste 4 Este 0 980.2 -0.2 43
2019-10-13 20:00:00 24.3 2 Nordeste 9 Norte 0 980.1 -0.7 38
2019-10-13 19:00:00 26.8 3 Norte 13 Noroeste 0 980.1 -1.1 32
2019-10-13 18:00:00 28.4 5 Noroeste 17 Noroeste 0 980.4 -1.7 27
2019-10-13 17:00:00 28.8 4 Sudoeste 17 Oeste 0 980.8 -2.8 26
2019-10-13 16:00:00 28.7 9 Sudoeste 23 Sudoeste 0 981.2 -3.2 27
2019-10-13 15:00:00 27.2 10 Sudoeste 21 Sudoeste 0 982.1 -2.9 31
2019-10-13 14:00:00 25 5 Sur 17 Sudeste 0 983.6 -1.3 37
2019-10-13 13:00:00 23 6 Este 18 Sudeste 0 984.4 -0.5 43
2019-10-13 12:00:00 21.6 5 Sudeste 15 Sudeste 0 985 0.7 53
2019-10-13 11:00:00 19.7 5 Este 11 Sudeste 0 984.9 0.9 57
2019-10-13 10:00:00 17.3 0 Calma 5 Sudeste 0 984.9 1.1 68
2019-10-13 09:00:00 14.2 2 Este 9 Sudeste 0 984.3 0.9 77
2019-10-13 08:00:00 14.3 4 Sudeste 8 Sudeste 0 984 0.8 74
2019-10-13 07:00:00 14.6 3 Sur 7 Sudeste 0 983.8 0.5 74
2019-10-13 06:00:00 14.7 4 Sur 9 Sur 0 983.4 -0.1 71
2019-10-13 05:00:00 15.7 4 Sudoeste 6 Sudoeste 0 983.2 0 72
2019-10-13 04:00:00 16.5 3 Sur 13 Sudoeste 0 983.3 0.3 69
2019-10-13 03:00:00 16.8 7 Sudoeste 13 Sudoeste 0 983.5 0.8 68
2019-10-13 02:00:00 18.7 6 Sudoeste 19 Sudoeste 0 983.2 0.8 63
2019-10-13 01:00:00 20.3 10 Oeste 21 Oeste 0 983 1.3 58
2019-10-13 00:00:00 21.5 8 Sudoeste 19 Sudoeste 0 982.7 1.3 55
2019-10-12 23:00:00 22.7 8 Sudoeste 19 Sudoeste 0 982.4 1.8 49
2019-10-12 22:00:00 24 11 Sudoeste 23 Sudoeste 0 981.7 1.4 42
2019-10-12 21:00:00 26.2 13 Sudoeste 30 Sudoeste 0 981.4 0.8 37
2019-10-12 20:00:00 27.9 13 Sudoeste 28 Sur 0 980.6 -0.1 26
2019-10-12 19:00:00 29.4 13 Sur 30 Sudoeste 0 980.3 -1.1 22
2019-10-12 18:00:00 28.2 8 Este 17 Este 0 980.6 -1.3 29
2019-10-12 17:00:00 28.8 4 Este 13 Sudeste 0 980.7 -2.1 27
2019-10-12 16:00:00 27.7 11 Sudeste 44 Sudeste 1.2 981.4 -1.8 27
2019-10-12 15:00:00 31.5 9 Sur 27 Sudeste 0 981.9 -1.7 19
2019-10-12 14:00:00 30.6 8 Sur 21 Sudeste 0 982.8 -1.2 22
2019-10-12 13:00:00 29.1 8 Este 19 Sudeste 0 983.2 -0.4 25
2019-10-12 12:00:00 27.4 12 Sudeste 25 Este 0 983.6 0.8 27
2019-10-12 11:00:00 22.6 2 Noroeste 7 Noroeste 0 984 1.3 42
2019-10-12 10:00:00 20.7 3 Nordeste 9 Sudeste 0 983.6 1 48
2019-10-12 09:00:00 21.6 5 Sudeste 12 Sudeste 0 982.8 0 39
2019-10-12 08:00:00 22 6 Este 15 Sudeste 0 982.7 -0.9 37
2019-10-12 07:00:00 23.3 8 Este 27 Sudeste 0 982.6 -1.1 33
2019-10-12 06:00:00 22.9 11 Este 19 Este 0 982.8 -1.2 34
2019-10-12 05:00:00 21.9 5 Noroeste 23 Noroeste 0 983.6 -0.2 43
2019-10-12 04:00:00 21.7 3 Oeste 10 Noroeste 0 983.7 -0.9 43
2019-10-12 03:00:00 21.9 3 Norte 11 Noroeste 0 984 -0.6 41
2019-10-12 02:00:00 23.1 3 Nordeste 9 Oeste 0 983.8 -0.8 37
2019-10-12 01:00:00 24.8 4 Oeste 14 Sudeste 0 984.6 0.1 30
2019-10-12 00:00:00 25.3 4 Sudeste 15 Sur 0 984.6 0.5 29
2019-10-11 23:00:00 25.1 5 Sur 13 Sur 0 984.6 1.1 29
2019-10-11 22:00:00 25.5 8 Sur 13 Sudoeste 0 984.5 0.9 28
2019-10-11 21:00:00 26.4 9 Sur 15 Sur 0 984.1 0.6 26
2019-10-11 20:00:00 27.5 5 Sudoeste 19 Sur 0 983.5 -0.4 26
2019-10-11 19:00:00 29.3 10 Sur 18 Sur 0 983.6 -0.5 23
2019-10-11 18:00:00 29.5 0 Calma 13 Noroeste 0 983.5 -1.4 26
2019-10-11 17:00:00 29.9 5 Noroeste 14 Noroeste 0 983.9 -2 25
2019-10-11 16:00:00 31.4 4 Oeste 23 Sur 0 984.1 -2.9 20
2019-10-11 15:00:00 31.3 7 Sur 19 Sur 0 984.9 -2.4 21
2019-10-11 14:00:00 29.4 5 Este 14 Este 0 985.9 -1.6 31
2019-10-11 13:00:00 27 6 Este 22 Este 0 987 -0.1 38
2019-10-11 12:00:00 26.1 11 Sudeste 23 Sudeste 0 987.3 0.6 40
2019-10-11 11:00:00 24.7 9 Sudeste 18 Sudeste 0 987.5 1.1 45
2019-10-11 10:00:00 22.2 5 Este 12 Este 0 987.1 1 48
2019-10-11 09:00:00 19.8 5 Este 12 Este 0 986.7 1.1 58
2019-10-11 08:00:00 19.7 3 Este 23 Sur 0 986.4 1 59
2019-10-11 07:00:00 18.7 4 Sudeste 10 Sudoeste 0 986.1 0.6 55
2019-10-11 06:00:00 17.9 2 Nordeste 6 Nordeste 0 985.6 0.1 58
2019-10-11 05:00:00 17.8 2 Norte 7 Noroeste 0 985.4 0 59
2019-10-11 04:00:00 18.6 3 Noroeste 6 Norte 0 985.5 0.1 57
2019-10-11 03:00:00 20.2 3 Norte 16 Sur 0 985.5 0.2 50
2019-10-11 02:00:00 23 10 Sudeste 17 Sudeste 0 985.4 0.3 36
2019-10-11 01:00:00 22 3 Este 11 Sudeste 0 985.4 0.6 39
2019-10-11 00:00:00 22.7 5 Sur 10 Sur 0 985.3 1 35
2019-10-10 23:00:00 23.5 6 Sudoeste 11 Sudoeste 0 985.1 1.1 34
2019-10-10 22:00:00 24.6 5 Sur 13 Sudoeste 0 984.8 0.9 30
2019-10-10 21:00:00 26 2 Sur 4 Sudeste 0 984.3 0.5 32
2019-10-10 20:00:00 27.5 0 Calma 6 Nordeste 0 984 0 31
2019-10-10 19:00:00 30.6 3 Norte 13 Norte 0 983.9 -0.5 25
2019-10-10 18:00:00 31.3 5 Norte 15 Norte 0 983.8 -1.2 23
2019-10-10 17:00:00 31.8 4 Norte 18 Norte 0 984 -1.9 22
2019-10-10 16:00:00 31.4 7 Noroeste 17 Norte 0 984.4 -2.1 20
2019-10-10 15:00:00 31 4 Nordeste 14 Este 0 985 -1.7 19
2019-10-10 14:00:00 28.5 3 Norte 10 Nordeste 0 985.9 -0.8 20
2019-10-10 13:00:00 26.2 3 Nordeste 11 Nordeste 0 986.5 0.1 25
2019-10-10 12:00:00 23.3 3 Nordeste 8 Norte 0 986.7 1 28
2019-10-10 11:00:00 19.8 0 Calma 9 Norte 0 986.7 1.4 38
2019-10-10 10:00:00 17.8 2 Sudeste 8 Sudeste 0 986.4 1.3 37
2019-10-10 09:00:00 13.6 2 Sur 5 Sudoeste 0 985.7 0.9 51
2019-10-10 08:00:00 13.6 3 Norte 6 Noroeste 0 985.3 0.7 55
2019-10-10 07:00:00 14.9 4 Sudoeste 10 Sudoeste 0 985.1 0.3 48
2019-10-10 06:00:00 15.6 4 Oeste 8 Oeste 0 984.8 -0.1 42
2019-10-10 05:00:00 16.5 5 Sudoeste 12 Sudoeste 0 984.6 -0.3 37
2019-10-10 04:00:00 17.1 6 Sudoeste 11 Sur 0 984.8 -0.2 32
2019-10-10 03:00:00 17.7 5 Sudoeste 9 Sudoeste 0 984.9 0.2 30
2019-10-10 02:00:00 18.8 6 Sur 13 Sur 0 984.9 0.4 27
2019-10-10 01:00:00 19 4 Sudoeste 8 Sudoeste 0 985 0.8 30
2019-10-10 00:00:00 19.7 3 Sudoeste 6 Sudoeste 0 984.7 1 30
2019-10-09 23:00:00 20.5 3 Sur 5 Sur 0 984.5 1.3 35
2019-10-09 22:00:00 22.4 0 Calma 8 Noroeste 0 984.2 1.2 30
2019-10-09 21:00:00 24.3 3 Oeste 9 Oeste 0 983.7 0.9 34
2019-10-09 20:00:00 27.1 4 Oeste 14 Oeste 0 983.2 0.2 27
2019-10-09 19:00:00 30.3 6 Oeste 19 Sudoeste 0 983 -0.6 26
2019-10-09 18:00:00 31.2 7 Oeste 23 Oeste 0 982.8 -1.2 27
2019-10-09 17:00:00 31.5 8 Oeste 26 Oeste 0 983 -1.8 27
2019-10-09 16:00:00 31.6 10 Oeste 26 Oeste 0 983.6 -1.9 29
2019-10-09 15:00:00 29.9 7 Oeste 17 Oeste 0 984 -1.4 33
2019-10-09 14:00:00 28.5 6 Oeste 18 Oeste 0 984.8 -0.5 37
2019-10-09 13:00:00 26 5 Noroeste 19 Noroeste 0 985.5 0.2 47
2019-10-09 12:00:00 24.5 7 Oeste 16 Noroeste 0 985.4 0.6 52
2019-10-09 11:00:00 21.4 10 Sudoeste 19 Sudoeste 0 985.3 1.1 64
2019-10-09 10:00:00 18.3 11 Sudoeste 19 Sudoeste 0 985.3 1.3 78
2019-10-09 09:00:00 16.9 8 Sudoeste 18 Sudoeste 0 984.8 0.8 87
2019-10-09 08:00:00 17 8 Sudoeste 17 Sudoeste 0 984.2 0.4 85
2019-10-09 07:00:00 17.6 8 Sudoeste 17 Sudoeste 0 984 0.4 83
2019-10-09 06:00:00 18.5 8 Sudoeste 17 Oeste 0 984 0.1 80
2019-10-09 05:00:00 18.9 9 Sudoeste 21 Oeste 0 983.8 -0.3 76
2019-10-09 04:00:00 19.9 9 Sudoeste 18 Sudoeste 0 983.6 -0.6 66
2019-10-09 03:00:00 20.6 6 Sudoeste 13 Oeste 0 983.9 -0.2 52
2019-10-09 02:00:00 21.4 5 Sudoeste 15 Sudoeste 0 984.1 0.3 44
2019-10-09 01:00:00 22.1 6 Sudoeste 14 Sudoeste 0 984.2 0.9 36
2019-10-09 00:00:00 23 5 Sudoeste 11 Sudoeste 0 984.1 0.9 29
2019-10-08 23:00:00 23.9 6 Sudoeste 9 Sudoeste 0 983.8 0.8 29
2019-10-08 22:00:00 25 2 Sur 6 Sudoeste 0 983.3 0.6 27
2019-10-08 21:00:00 27.3 5 Sudoeste 8 Oeste 0 983.2 0.4 24
2019-10-08 20:00:00 29.5 3 Sudoeste 11 Noroeste 0 983 -0.1 21
2019-10-08 19:00:00 32.7 5 Oeste 14 Noroeste 0 982.7 -1.1 18
2019-10-08 18:00:00 33.7 6 Noroeste 14 Noroeste 0 982.8 -1.6 17
2019-10-08 17:00:00 34.7 5 Oeste 14 Oeste 0 983.1 -2.2 14
2019-10-08 16:00:00 34.1 6 Oeste 17 Noroeste 0 983.8 -2.2 16
2019-10-08 15:00:00 33 5 Noroeste 16 Noroeste 0 984.4 -2.1 18
2019-10-08 14:00:00 31 4 Norte 12 Norte 0 985.3 -1.5 20
2019-10-08 13:00:00 27.6 3 Norte 8 Este 0 986 -0.5 26
2019-10-08 12:00:00 24.5 3 Nordeste 9 Norte 0 986.5 0.5 31
2019-10-08 11:00:00 21.4 2 Nordeste 7 Norte 0 986.8 1.3 39
2019-10-08 10:00:00 18.1 0 Calma 9 Sudoeste 0 986.5 1.2 49
2019-10-08 09:00:00 15.4 0 Calma 4 Este 0 986 0.8 47
2019-10-08 08:00:00 15.1 0 Calma 4 Noroeste 0 985.5 0.3 57
2019-10-08 07:00:00 15.2 3 Nordeste 7 Sur 0 985.3 0.1 47
2019-10-08 06:00:00 15.7 3 Sur 7 Sudoeste 0 985.2 -0.2 50
2019-10-08 05:00:00 16.7 2 Norte 5 Noroeste 0 985.2 -0.2 52
2019-10-08 04:00:00 17.2 0 Calma 9 Oeste 0 985.2 -0.4 43
2019-10-08 03:00:00 18.4 5 Oeste 10 Oeste 0 985.4 -0.3 42
2019-10-08 02:00:00 19.3 3 Norte 9 Sudeste 0 985.4 -0.3 40
2019-10-08 01:00:00 21 3 Sudeste 9 Sudeste 0 985.6 0.3 30
2019-10-08 00:00:00 21.5 3 Sur 7 Sur 0 985.7 0.9 30
2019-10-07 23:00:00 22.5 2 Sur 6 Sur 0 985.7 1 32
2019-10-07 22:00:00 23.5 0 Calma 12 Norte 0 985.3 0.6 32
2019-10-07 21:00:00 25.8 2 Sur 5 Sur 0 984.8 0 25
2019-10-07 20:00:00 28 3 Sur 5 Sur 0 984.7 -0.4 23
2019-10-07 19:00:00 30.9 2 Nordeste 10 Noroeste 0 984.7 -0.7 18
2019-10-07 18:00:00 31.9 5 Noroeste 11 Noroeste 0 984.8 -1.2 16
2019-10-07 17:00:00 31.7 4 Nordeste 14 Noroeste 0 985.1 -1.8 17
2019-10-07 16:00:00 31.4 4 Norte 12 Noroeste 0 985.4 -2 18
2019-10-07 15:00:00 31.2 3 Sur 13 Sur 0 986 -1.7 18
2019-10-07 14:00:00 27.9 3 Norte 10 Nordeste 0 986.9 -0.8 24
2019-10-07 13:00:00 25.6 3 Nordeste 7 Nordeste 0 987.4 0.2 28
2019-10-07 12:00:00 23.6 2 Sudoeste 10 Noroeste 0 987.7 0.7 33
2019-10-07 11:00:00 20.1 3 Noroeste 10 Noroeste 0 987.7 1.2 47
2019-10-07 10:00:00 17.3 2 Noroeste 9 Oeste 0 987.2 1.1 53
2019-10-07 09:00:00 14.1 0 Calma 9 Sudoeste 0 987 1.4 63
2019-10-07 08:00:00 14.3 5 Sudoeste 9 Sudoeste 0 986.5 1 55
2019-10-07 07:00:00 15 2 Sudoeste 6 Sudoeste 0 986.1 0.1 57
2019-10-07 06:00:00 16.1 5 Sudoeste 11 Sudoeste 0 985.6 -1 50
2019-10-07 05:00:00 17.3 5 Sudoeste 19 Sudoeste 0 985.5 -1.2 43
2019-10-07 04:00:00 17.9 8 Sudoeste 15 Sudoeste 0 986 -1.1 41
2019-10-07 03:00:00 18.5 7 Sudoeste 15 Sudoeste 0 986.6 -0.7 41
2019-10-07 02:00:00 19.3 6 Sudoeste 15 Sudoeste 0 986.7 -0.3 39
2019-10-07 01:00:00 19.6 4 Sudoeste 10 Oeste 0 987.1 0.7 39
2019-10-07 00:00:00 21.3 4 Oeste 9 Oeste 0 987.3 1.2 34
2019-10-06 23:00:00 21.1 3 Sur 9 Sudoeste 0 987 1.1 37
2019-10-06 22:00:00 22 5 Sudoeste 9 Oeste 0 986.4 0.6 35
2019-10-06 21:00:00 24.2 4 Oeste 10 Sudoeste 0 986.1 0.2 30
2019-10-06 20:00:00 26.9 4 Oeste 10 Sudoeste 0 985.9 -0.3 25
2019-10-06 19:00:00 30.2 5 Sudoeste 14 Sudoeste 0 985.8 -1 20
2019-10-06 18:00:00 30.8 5 Oeste 19 Noroeste 0 985.9 -1.4 18
2019-10-06 17:00:00 30.3 5 Oeste 18 Oeste 0 986.2 -2 20
2019-10-06 16:00:00 29.1 6 Oeste 15 Noroeste 0 986.8 -1.7 22
2019-10-06 15:00:00 28.1 6 Noroeste 17 Noroeste 0 987.3 -1.2 25
2019-10-06 14:00:00 25.9 5 Noroeste 15 Noroeste 0 988.2 -0.2 32
2019-10-06 13:00:00 23.7 5 Noroeste 14 Noroeste 0 988.5 0 42
2019-10-06 12:00:00 21.7 3 Sudoeste 12 Sudoeste 0 988.5 0.9 45
2019-10-06 11:00:00 17.8 8 Sudoeste 15 Sudoeste 0 988.4 1.5 60
2019-10-06 10:00:00 15.1 5 Oeste 12 Sudoeste 0 988.5 2 71
2019-10-06 09:00:00 12.3 5 Sudoeste 13 Sudoeste 0 987.6 1.4 80
2019-10-06 08:00:00 12.8 9 Sudoeste 18 Oeste 0 986.9 0.6 78
2019-10-06 07:00:00 12.7 8 Sudoeste 12 Sudoeste 0 986.5 0.4 75
2019-10-06 06:00:00 13.2 8 Sudoeste 16 Sudoeste 0 986.2 0.1 71
2019-10-06 05:00:00 14.3 7 Oeste 15 Sudoeste 0 986.3 -0.1 67
2019-10-06 04:00:00 15.8 7 Sudoeste 13 Oeste 0 986.1 -0.1 58
2019-10-06 03:00:00 16.1 7 Sur 12 Sudoeste 0 986.1 0.3 56
2019-10-06 02:00:00 16.7 7 Sudoeste 12 Oeste 0 986.4 0.9 54
2019-10-06 01:00:00 17.5 5 Sudoeste 11 Sudoeste 0 986.2 0.9 51
2019-10-06 00:00:00 18.4 6 Sudoeste 10 Sudoeste 0 985.8 0.9 47
2019-10-05 23:00:00 18.8 5 Sur 10 Sur 0 985.5 0.8 43
2019-10-05 22:00:00 19.4 5 Sudoeste 11 Sur 0 985.3 1 41
2019-10-05 21:00:00 20.5 6 Sudoeste 11 Sudoeste 0 984.9 0.7 39
2019-10-05 20:00:00 23.7 9 Sudoeste 20 Sudoeste 0 984.7 0.5 31
2019-10-05 19:00:00 26.1 9 Oeste 24 Oeste 0 984.3 -0.2 24
2019-10-05 18:00:00 27.2 9 Oeste 22 Oeste 0 984.2 -0.7 21
2019-10-05 17:00:00 28 9 Oeste 25 Sudoeste 0 984.2 -1.4 22
2019-10-05 16:00:00 27.6 10 Oeste 25 Oeste 0 984.5 -1.6 31
2019-10-05 15:00:00 27 6 Oeste 17 Oeste 0 984.9 -1.2 36
2019-10-05 14:00:00 25.3 4 Oeste 15 Oeste 0 985.6 -0.5 41
2019-10-05 13:00:00 22.5 4 Oeste 12 Sudoeste 0 986.1 0.4 49
2019-10-05 12:00:00 20 6 Noroeste 15 Noroeste 0 986.1 0.9 58
2019-10-05 11:00:00 17.7 5 Oeste 13 Oeste 0 986.1 1.5 65
2019-10-05 10:00:00 15.4 5 Oeste 13 Oeste 0 985.7 1.4 74
2019-10-05 09:00:00 12.9 4 Sudoeste 13 Oeste 0 985.2 1 84
2019-10-05 08:00:00 13.4 8 Oeste 15 Sudoeste 0 984.6 0.5 82
2019-10-05 07:00:00 14 6 Sudoeste 16 Sudoeste 0 984.3 -0.2 79
2019-10-05 06:00:00 15.2 9 Sudoeste 19 Sudoeste 0 984.2 -0.4 75
2019-10-05 05:00:00 16 10 Sudoeste 20 Sudoeste 0 984.1 -0.5 72
2019-10-05 04:00:00 16.5 8 Sudoeste 18 Sudoeste 0 984.5 0 71
2019-10-05 03:00:00 17.9 10 Sudoeste 18 Oeste 0 984.6 0.2 67
2019-10-05 02:00:00 17.9 6 Sudoeste 14 Sudoeste 0 984.6 0.5 67
2019-10-05 01:00:00 18.6 7 Sudoeste 12 Sudoeste 0 984.5 0.6 60
2019-10-05 00:00:00 19.5 8 Sudoeste 11 Sudoeste 0 984.4 0.4 49
2019-10-04 23:00:00 20.1 5 Sur 10 Sur 0 984.1 0.2 47
2019-10-04 22:00:00 20.6 3 Sudoeste 8 Oeste 0 983.9 0.3 47
2019-10-04 21:00:00 22.1 4 Oeste 10 Sudoeste 0 984 0.2 41
2019-10-04 20:00:00 24.9 5 Sudoeste 19 Sudoeste 0 983.9 -0.3 32
2019-10-04 19:00:00 27.5 8 Oeste 22 Sudoeste 0 983.6 -1.1 29
2019-10-04 18:00:00 28.3 11 Sudoeste 24 Sudoeste 0 983.8 -1.4 29
2019-10-04 17:00:00 27.8 9 Oeste 29 Oeste 0 984.2 -2 31
2019-10-04 16:00:00 27.4 11 Oeste 28 Oeste 0 984.7 -2.1 36
2019-10-04 15:00:00 26.6 7 Oeste 21 Oeste 0 985.2 -1.8 41
2019-10-04 14:00:00 25 6 Oeste 20 Oeste 0 986.2 -1.1 48
2019-10-04 13:00:00 23.4 5 Oeste 18 Noroeste 0 986.8 -0.2 54
2019-10-04 12:00:00 22 4 Sudoeste 13 Oeste 0 987 0.2 60
2019-10-04 11:00:00 19.3 6 Oeste 17 Oeste 0 987.3 0.8 72
2019-10-04 10:00:00 17.1 8 Sudoeste 14 Sudoeste 0 987 0.8 79
2019-10-04 09:00:00 14.3 5 Sur 9 Oeste 0 986.8 0.9 89
2019-10-04 08:00:00 14.4 3 Sudoeste 13 Oeste 0 986.5 0.5 86
2019-10-04 07:00:00 15 6 Oeste 13 Sudoeste 0 986.2 0 83
2019-10-04 06:00:00 15.7 6 Sudoeste 13 Sudoeste 0 985.9 -0.7 81
2019-10-04 05:00:00 16.4 6 Sudoeste 14 Sudoeste 0 986 -0.5 80
2019-10-04 04:00:00 17.1 5 Sudoeste 20 Sudoeste 0 986.2 -0.4 76
2019-10-04 03:00:00 18.4 8 Oeste 21 Sudoeste 0 986.6 0.2 70
2019-10-04 02:00:00 18.5 10 Sudoeste 18 Sudoeste 0 986.5 0.3 67
2019-10-04 01:00:00 18.6 7 Sudoeste 16 Oeste 0 986.6 0.6 55
2019-10-04 00:00:00 19 7 Sudoeste 14 Sudoeste 0 986.4 0.4 35
2019-10-03 23:00:00 20.1 6 Sur 11 Sudoeste 0 986.2 0.4 32
2019-10-03 22:00:00 21.3 3 Sudoeste 15 Sudoeste 0 986 0.5 35
2019-10-03 21:00:00 23.3 7 Oeste 15 Oeste 0 986 0.4 32
2019-10-03 20:00:00 26.3 6 Sudoeste 24 Oeste 0 985.8 -0.1 27
2019-10-03 19:00:00 28.7 12 Sudoeste 28 Sudoeste 0 985.5 -0.9 22
2019-10-03 18:00:00 29.4 9 Oeste 26 Noroeste 0 985.6 -1.5 21
2019-10-03 17:00:00 29.9 4 Norte 25 Oeste 0 985.9 -1.8 23
2019-10-03 16:00:00 28.8 9 Oeste 19 Oeste 0 986.4 -1.8 22
2019-10-03 15:00:00 26.6 6 Noroeste 18 Noroeste 0 987.1 -1.4 28
2019-10-03 14:00:00 25.7 6 Oeste 20 Sudoeste 0 987.7 -0.9 29
2019-10-03 13:00:00 23.5 3 Oeste 12 Oeste 0 988.2 0.2 36
2019-10-03 12:00:00 20.4 5 Noroeste 14 Noroeste 0 988.5 0.7 43
2019-10-03 11:00:00 18.1 7 Oeste 19 Oeste 0 988.6 1.1 57
2019-10-03 10:00:00 15.3 10 Oeste 22 Sudoeste 0 988 1 69
2019-10-03 09:00:00 12.8 7 Sudoeste 16 Sudoeste 0 987.8 1 78
2019-10-03 08:00:00 13 6 Oeste 14 Sudoeste 0 987.5 1.1 74
2019-10-03 07:00:00 13.2 8 Sudoeste 14 Oeste 0 987 0.7 71
2019-10-03 06:00:00 14.1 6 Oeste 16 Sudoeste 0 986.8 0.3 67
2019-10-03 05:00:00 15.4 6 Oeste 18 Sudoeste 0 986.4 -0.1 58
2019-10-03 04:00:00 16.4 8 Sudoeste 18 Oeste 0 986.3 -0.5 50
2019-10-03 03:00:00 16 7 Sudoeste 13 Sudoeste 0 986.5 -0.1 51
2019-10-03 02:00:00 16.4 7 Sudoeste 11 Sudoeste 0 986.5 0 49
2019-10-03 01:00:00 17 6 Sudoeste 11 Sudoeste 0 986.8 0.8 45
2019-10-03 00:00:00 18 5 Sudoeste 11 Sudoeste 0 986.6 1 39
2019-10-02 23:00:00 19.5 6 Oeste 15 Sudoeste 0 986.5 1.2 36
2019-10-02 22:00:00 21.2 6 Oeste 13 Sudoeste 0 986 1 31
2019-10-02 21:00:00 22.5 4 Oeste 13 Oeste 0 985.6 0.6 29
2019-10-02 20:00:00 24.8 4 Oeste 17 Oeste 0 985.3 0 25
2019-10-02 19:00:00 28 6 Oeste 31 Sudoeste 0 985 -0.6 16
2019-10-02 18:00:00 28.8 15 Oeste 31 Sudoeste 0 985 -0.9 19
2019-10-02 17:00:00 28.9 9 Oeste 29 Noroeste 0 985.3 -1.4 14
2019-10-02 16:00:00 28.5 9 Oeste 26 Sudoeste 0 985.6 -1.5 16
2019-10-02 15:00:00 26.4 9 Noroeste 30 Sudoeste 0 985.9 -1.3 24
2019-10-02 14:00:00 24.3 14 Sudoeste 28 Oeste 0 986.7 -0.4 34
2019-10-02 13:00:00 22.2 9 Oeste 28 Oeste 0 987.1 0.5 43
2019-10-02 12:00:00 19.8 9 Oeste 24 Sudoeste 0 987.2 1.2 53
2019-10-02 11:00:00 17.1 9 Oeste 22 Sudoeste 0 987.1 1.1 67
2019-10-02 10:00:00 14.9 9 Oeste 25 Oeste 0 986.6 0.8 81
2019-10-02 09:00:00 12.8 8 Sudoeste 17 Oeste 0 986 0.4 91
2019-10-02 08:00:00 12.4 5 Sudoeste 16 Sudoeste 0 986 0.3 89
2019-10-02 07:00:00 12.8 7 Sudoeste 14 Sudoeste 0 985.8 -0.1 87
2019-10-02 06:00:00 13.7 8 Sudoeste 14 Sudoeste 0 985.6 -0.5 83
2019-10-02 05:00:00 14.4 7 Oeste 18 Sudoeste 0 985.7 -0.3 79
2019-10-02 04:00:00 15.5 9 Sudoeste 24 Oeste 0 985.9 -0.4 75
2019-10-02 03:00:00 16.2 11 Sudoeste 20 Sudoeste 0 986.1 0.3 71
2019-10-02 02:00:00 17.4 4 Sur 15 Oeste 0 986 0.8 61
2019-10-02 01:00:00 18.6 9 Oeste 17 Oeste 0 986.3 1.8 54
2019-10-02 00:00:00 19.8 6 Oeste 22 Sudoeste 0 985.8 1.7 49
2019-10-01 23:00:00 19.7 6 Sudoeste 14 Sudoeste 0 985.2 1.3 48
2019-10-01 22:00:00 21.5 4 Sudoeste 14 Oeste 0 984.5 1.2 42
2019-10-01 21:00:00 23.1 5 Oeste 16 Noroeste 0 984.1 0.7 38
2019-10-01 20:00:00 25.2 5 Noroeste 31 Noroeste 0 983.9 0.4 33
2019-10-01 19:00:00 27 12 Noroeste 27 Noroeste 0 983.3 -0.3 31
2019-10-01 18:00:00 28 9 Noroeste 46 Noroeste 0 983.4 -0.5 30
2019-10-01 17:00:00 27.8 11 Noroeste 35 Oeste 0 983.5 -0.9 31
2019-10-01 16:00:00 28.1 12 Noroeste 33 Oeste 0 983.6 -1.5 30
2019-10-01 15:00:00 27.1 11 Noroeste 29 Oeste 0 983.9 -1.6 35
2019-10-01 14:00:00 25.8 8 Oeste 27 Sudoeste 0 984.4 -1 43
2019-10-01 13:00:00 23 13 Sudoeste 30 Oeste 0 985.1 0.5 54
2019-10-01 12:00:00 20.8 12 Oeste 27 Oeste 0 985.5 1.8 65
2019-10-01 11:00:00 18.2 9 Oeste 32 Oeste 0 985.4 2.2 76
2019-10-01 10:00:00 17 13 Oeste 33 Sudoeste 0 984.6 1.5 80
2019-10-01 09:00:00 16.5 13 Oeste 26 Sudoeste 0 983.7 0.8 86
2019-10-01 08:00:00 16.2 12 Sudoeste 18 Oeste 0 983.2 0.6 84
2019-10-01 07:00:00 17.3 5 Sudoeste 17 Oeste 0 983.1 0.2 78
2019-10-01 06:00:00 17.8 9 Oeste 21 Oeste 0 982.9 -0.5 65
2019-10-01 05:00:00 19 8 Oeste 15 Oeste 0 982.6 -0.8 61
2019-10-01 04:00:00 19 7 Sudoeste 16 Sudoeste 0 982.9 -0.4 50
2019-10-01 03:00:00 19.6 7 Sudoeste 13 Sudoeste 0 983.4 0.3 46
2019-10-01 02:00:00 20.6 4 Sudoeste 12 Oeste 0 983.4 0.6 39
2019-10-01 01:00:00 21.5 7 Sudoeste 14 Sudoeste 0 983.3 0.7 31
2019-10-01 00:00:00 22.6 7 Sudoeste 13 Sudoeste 0 983.1 0.8 25
2019-09-30 23:00:00 23.1 3 Sur 11 Sudoeste 0 982.8 0.7 22
2019-09-30 22:00:00 24 4 Sudeste 6 Sudeste 0 982.6 0.4 22
2019-09-30 21:00:00 25.7 2 Oeste 9 Oeste 0 982.3 -0.1 21
2019-09-30 20:00:00 29 5 Noroeste 23 Noroeste 0 982.1 -0.8 20
2019-09-30 19:00:00 32.1 8 Noroeste 16 Noroeste 0 982.2 -1.1 15
2019-09-30 18:00:00 33.4 6 Oeste 18 Oeste 0 982.4 -1.8 16
2019-09-30 17:00:00 33 4 Nordeste 14 Norte 0 982.9 -2.4 16
2019-09-30 16:00:00 32.9 5 Oeste 13 Noroeste 0 983.3 -2.7 16
2019-09-30 15:00:00 31.4 3 Norte 14 Norte 0 984.2 -2.2 19
2019-09-30 14:00:00 28.9 3 Nordeste 11 Nordeste 0 985.3 -1.1 27
2019-09-30 13:00:00 26.8 2 Nordeste 8 Nordeste 0 986 -0.2 31
2019-09-30 12:00:00 24 3 Norte 10 Noroeste 0 986.4 0.6 41
2019-09-30 11:00:00 21 3 Noroeste 8 Oeste 0 986.4 1 52
2019-09-30 10:00:00 18.4 2 Sudoeste 7 Sudoeste 0 986.2 1 58
2019-09-30 09:00:00 15.2 3 Sudoeste 10 Sudoeste 0 985.8 0.8 55
2019-09-30 08:00:00 15.4 7 Sur 12 Sudoeste 0 985.4 0.3 50
2019-09-30 07:00:00 15.7 5 Sudoeste 9 Sudoeste 0 985.2 -0.2 50
2019-09-30 06:00:00 16.4 6 Sudoeste 10 Sudoeste 0 985 -0.6 44
2019-09-30 05:00:00 17 6 Sudoeste 13 Sudoeste 0 985.1 -0.5 38
2019-09-30 04:00:00 18.1 5 Oeste 14 Sudoeste 0 985.4 -0.2 33
2019-09-30 03:00:00 18.7 4 Sudoeste 9 Sudoeste 0 985.6 0 30
2019-09-30 02:00:00 20.1 5 Sur 12 Sur 0 985.6 0 32
2019-09-30 01:00:00 20.6 6 Sudoeste 10 Sudoeste 0 985.6 0.5 29
2019-09-30 00:00:00 21.1 5 Sur 9 Sudoeste 0 985.6 1.1 31
2019-09-29 23:00:00 21.9 4 Sudoeste 9 Sudoeste 0 985.6 1.2 28
2019-09-29 22:00:00 23.7 3 Sur 8 Sudoeste 0 985.1 0.7 32
2019-09-29 21:00:00 25.7 4 Oeste 9 Sudoeste 0 984.5 -0.2 24
2019-09-29 20:00:00 28.4 5 Oeste 22 Noroeste 0 984.4 -0.6 21
2019-09-29 19:00:00 31.3 8 Noroeste 21 Oeste 0 984.4 -1 15
2019-09-29 18:00:00 32.1 8 Noroeste 25 Noroeste 0 984.7 -1.4 14
2019-09-29 17:00:00 33.6 6 Sudoeste 20 Noroeste 0 985 -1.9 13
2019-09-29 16:00:00 33 7 Sudoeste 17 Oeste 0 985.4 -1.8 14
2019-09-29 15:00:00 31.2 5 Noroeste 15 Noroeste 0 986.1 -1.3 18
2019-09-29 14:00:00 29.4 5 Noroeste 13 Oeste 0 986.9 -0.5 25
2019-09-29 13:00:00 26.6 3 Noroeste 11 Noroeste 0 987.2 0.2 31
2019-09-29 12:00:00 24.4 3 Norte 10 Oeste 0 987.4 0.8 37
2019-09-29 11:00:00 21.6 5 Noroeste 10 Noroeste 0 987.4 1.2 45
2019-09-29 10:00:00 19.1 5 Sudoeste 9 Sudoeste 0 987 1.3 51
2019-09-29 09:00:00 15.6 3 Sudoeste 8 Sudoeste 0 986.6 1 59
2019-09-29 08:00:00 15.2 3 Sudoeste 11 Sudoeste 0 986.2 0.8 57
2019-09-29 07:00:00 16 4 Sudoeste 12 Oeste 0 985.7 0.1 52
2019-09-29 06:00:00 16.7 6 Sudoeste 13 Sudoeste 0 985.6 -0.2 48
2019-09-29 05:00:00 17.6 5 Sudoeste 9 Sudoeste 0 985.4 -0.2 42
2019-09-29 04:00:00 17.9 3 Sudoeste 10 Oeste 0 985.6 -0.2 45
2019-09-29 03:00:00 19.1 6 Sudoeste 11 Sudoeste 0 985.8 0 37
2019-09-29 02:00:00 19.2 5 Sur 10 Sudoeste 0 985.6 0 41
2019-09-29 01:00:00 20.2 0 Calma 7 Sudoeste 0 985.8 0.7 34
2019-09-29 00:00:00 21.7 4 Sudoeste 8 Sur 0 985.8 1 33
2019-09-28 23:00:00 22.5 3 Sur 15 Noroeste 0 985.6 1.1 32
2019-09-28 22:00:00 24.5 3 Sur 5 Sur 0 985.1 0.5 27
2019-09-28 21:00:00 26.2 2 Este 9 Nordeste 0 984.8 -0.1 25
2019-09-28 20:00:00 28.5 2 Nordeste 10 Norte 0 984.5 -0.8 22
2019-09-28 19:00:00 31.3 3 Norte 14 Norte 0 984.6 -1.3 19
2019-09-28 18:00:00 32.5 5 Norte 17 Noroeste 0 984.9 -1.6 15
2019-09-28 17:00:00 32.5 5 Norte 21 Noroeste 0 985.3 -2 18
2019-09-28 16:00:00 32.8 4 Nordeste 10 Nordeste 0 985.9 -2.2 15
2019-09-28 15:00:00 31.7 4 Nordeste 12 Nordeste 0 986.5 -2.1 17
2019-09-28 14:00:00 29.8 4 Nordeste 9 Nordeste 0 987.3 -1.3 22
2019-09-28 13:00:00 26.8 3 Norte 10 Norte 0 988.1 0 31
2019-09-28 12:00:00 23.5 3 Nordeste 7 Nordeste 0 988.6 0.9 39
2019-09-28 11:00:00 20.6 3 Norte 7 Noroeste 0 988.6 1.3 47
2019-09-28 10:00:00 17.7 3 Noroeste 6 Noroeste 0 988.1 1.1 54
2019-09-28 09:00:00 14.2 2 Nordeste 5 Nordeste 0 987.7 0.7 62
2019-09-28 08:00:00 14 0 Calma 10 Sudeste 0 987.3 0.4 54
2019-09-28 07:00:00 15.1 4 Sur 8 Sudeste 0 987 0.1 56
2019-09-28 06:00:00 15.5 4 Sudoeste 9 Sudoeste 0 987 -0.1 55
2019-09-28 05:00:00 16.3 3 Oeste 12 Sudoeste 0 986.9 -0.2 50
2019-09-28 04:00:00 17.6 5 Sudoeste 14 Oeste 0 986.9 -0.2 41
2019-09-28 03:00:00 18.3 6 Sudoeste 15 Sudoeste 0 987.1 0.4 37
2019-09-28 02:00:00 18.7 7 Sudoeste 13 Sudoeste 0 987.1 0.5 35
2019-09-28 01:00:00 20 6 Sudoeste 13 Sudoeste 0 987.1 0.7 34
2019-09-28 00:00:00 20.7 5 Sur 10 Sudoeste 0 986.7 0.9 43
2019-09-27 23:00:00 22 3 Sur 7 Sudeste 0 986.6 1.2 36
2019-09-27 22:00:00 23.5 4 Oeste 10 Oeste 0 986.4 1.1 33
2019-09-27 21:00:00 25.7 3 Oeste 14 Sudoeste 0 985.8 0.3 30
2019-09-27 20:00:00 28.8 6 Oeste 21 Oeste 0 985.4 -0.3 24
2019-09-27 19:00:00 31.4 9 Sudoeste 20 Sudoeste 0 985.3 -0.7 18
2019-09-27 18:00:00 31.9 7 Oeste 18 Oeste 0 985.5 -1.3 19
2019-09-27 17:00:00 32.1 7 Sudoeste 20 Sudoeste 0 985.7 -1.8 19
2019-09-27 16:00:00 30.9 5 Oeste 18 Noroeste 0 986 -1.9 21
2019-09-27 15:00:00 30 5 Oeste 16 Sudoeste 0 986.8 -1.5 23
2019-09-27 14:00:00 27.8 6 Noroeste 17 Oeste 0 987.5 -0.7 31
2019-09-27 13:00:00 26 5 Oeste 13 Oeste 0 987.9 0.1 33
2019-09-27 12:00:00 23.3 5 Noroeste 17 Noroeste 0 988.3 0.9 46
2019-09-27 11:00:00 20.7 5 Oeste 11 Noroeste 0 988.2 0.9 53
2019-09-27 10:00:00 18.4 4 Oeste 10 Noroeste 0 987.8 0.8 64
2019-09-27 09:00:00 15.8 6 Sudoeste 11 Sur 0 987.4 0.5 67
2019-09-27 08:00:00 15.2 6 Sudoeste 11 Sudoeste 0 987.3 0.7 70
2019-09-27 07:00:00 15.7 7 Sudoeste 12 Sudoeste 0 987 0.2 65
2019-09-27 06:00:00 16.1 7 Sudoeste 14 Sudoeste 0 986.9 0 61
2019-09-27 05:00:00 17.3 7 Sudoeste 13 Sudoeste 0 986.6 -0.3 56
2019-09-27 04:00:00 17.8 6 Sudoeste 14 Sudoeste 0 986.8 0 53
2019-09-27 03:00:00 18.8 7 Sudoeste 12 Oeste 0 986.9 0.2 48
2019-09-27 02:00:00 20.2 6 Sudoeste 13 Sudoeste 0 986.9 0.4 42
2019-09-27 01:00:00 20.8 8 Sur 13 Sudoeste 0 986.8 0.7 40
2019-09-27 00:00:00 20.8 3 Sudoeste 8 Sur 0 986.7 1 44
2019-09-26 23:00:00 21.8 3 Sudoeste 8 Sudoeste 0 986.5 0.9 43
2019-09-26 22:00:00 23 2 Sudoeste 7 Oeste 0 986.1 0.6 37
2019-09-26 21:00:00 25 3 Sudoeste 9 Oeste 0 985.7 0.2 35
2019-09-26 20:00:00 27.3 3 Sudoeste 15 Sudoeste 0 985.6 -0.1 29
2019-09-26 19:00:00 30.2 5 Oeste 14 Oeste 0 985.5 -0.6 23
2019-09-26 18:00:00 30.7 4 Noroeste 17 Noroeste 0 985.5 -1.2 21
2019-09-26 17:00:00 30.7 6 Oeste 18 Oeste 0 985.7 -1.6 19
2019-09-26 16:00:00 29.3 7 Norte 20 Noroeste 0 986.1 -1.8 25
2019-09-26 15:00:00 29.7 3 Sudoeste 14 Noroeste 0 986.7 -1.5 24
2019-09-26 14:00:00 27.7 5 Sudoeste 12 Oeste 0 987.3 -1 29
2019-09-26 13:00:00 25.8 3 Oeste 11 Sudoeste 0 987.9 0 34
2019-09-26 12:00:00 23 3 Sudoeste 12 Oeste 0 988.2 0.8 45
2019-09-26 11:00:00 20.1 7 Sudoeste 14 Oeste 0 988.3 1.5 55
2019-09-26 10:00:00 17.4 6 Oeste 12 Oeste 0 987.9 1.5 67
2019-09-26 09:00:00 15.2 5 Sudoeste 13 Sudoeste 0 987.4 1.2 73
2019-09-26 08:00:00 14.7 4 Oeste 15 Sudoeste 0 986.8 0.7 70
2019-09-26 07:00:00 14.5 5 Sudoeste 12 Sudoeste 0 986.4 0.3 70
2019-09-26 06:00:00 15.2 7 Sudoeste 14 Sudoeste 0 986.2 -0.1 69
2019-09-26 05:00:00 15.6 6 Sudoeste 12 Sudoeste 0 986.1 -0.1 65
2019-09-26 04:00:00 16.4 7 Sudoeste 13 Sudoeste 0 986.1 -0.2 62
2019-09-26 03:00:00 16.9 6 Sudoeste 14 Sudoeste 0 986.3 0 58
2019-09-26 02:00:00 17.3 8 Sudoeste 13 Sur 0 986.2 0.2 55
2019-09-26 01:00:00 18.5 6 Sudoeste 14 Sudoeste 0 986.3 0.5 47
2019-09-26 00:00:00 19 4 Sur 9 Sur 0 986.3 0.8 44
2019-09-25 23:00:00 19.6 2 Sudoeste 7 Oeste 0 986 0.8 46
2019-09-25 22:00:00 20.7 3 Oeste 7 Oeste 0 985.8 0.7 41
2019-09-25 21:00:00 22.4 3 Oeste 10 Noroeste 0 985.5 0.5 36
2019-09-25 20:00:00 25.3 5 Noroeste 19 Noroeste 0 985.2 0.1 29
2019-09-25 19:00:00 27.1 9 Noroeste 25 Noroeste 0 985.1 -0.6 26
2019-09-25 18:00:00 27.9 9 Noroeste 24 Noroeste 0 985 -1.3 24
2019-09-25 17:00:00 28 8 Noroeste 31 Noroeste 0 985.1 -1.9 23
2019-09-25 16:00:00 27.3 9 Noroeste 25 Norte 0 985.7 -1.8 26
2019-09-25 15:00:00 26.5 8 Noroeste 23 Oeste 0 986.3 -1.6 28
2019-09-25 14:00:00 25.1 8 Noroeste 28 Oeste 0 987 -1 32
2019-09-25 13:00:00 23 10 Noroeste 25 Noroeste 0 987.5 0.1 39
2019-09-25 12:00:00 21.3 8 Oeste 23 Oeste 0 987.9 0.8 50
2019-09-25 11:00:00 18.9 7 Oeste 19 Oeste 0 988 1.2 65
2019-09-25 10:00:00 17 9 Sudoeste 18 Sudoeste 0 987.4 0.8 77
2019-09-25 09:00:00 14.5 8 Sudoeste 18 Sudoeste 0 987.1 0.6 92
2019-09-25 08:00:00 14.2 6 Sudoeste 15 Sudoeste 0 986.8 0 92
2019-09-25 07:00:00 15.1 6 Oeste 14 Oeste 0 986.6 -0.4 92
2019-09-25 06:00:00 15.4 9 Sudoeste 17 Sudoeste 0 986.5 -0.8 87
2019-09-25 05:00:00 16.1 6 Oeste 14 Oeste 0 986.8 -0.5 84
2019-09-25 04:00:00 16.9 5 Oeste 14 Oeste 0 987 -0.4 76
2019-09-25 03:00:00 18 5 Oeste 12 Oeste 0 987.3 -0.1 72
2019-09-25 02:00:00 19.6 5 Noroeste 26 Noroeste 0 987.3 0.2 62
2019-09-25 01:00:00 21.7 12 Noroeste 31 Noroeste 0 987.4 0.4 59
2019-09-25 00:00:00 22.3 7 Oeste 17 Oeste 0 987.4 0.7 68
2019-09-24 23:00:00 22.8 6 Oeste 19 Oeste 0 987.1 0.8 68
2019-09-24 22:00:00 23.3 5 Noroeste 18 Noroeste 0 987 1 65
2019-09-24 21:00:00 24.6 10 Noroeste 28 Oeste 0 986.7 0.6 58
2019-09-24 20:00:00 26.4 9 Oeste 30 Sudoeste 0 986.3 0 51
2019-09-24 19:00:00 27.9 12 Oeste 26 Sudoeste 0 986 -0.8 44
2019-09-24 18:00:00 28.4 12 Oeste 33 Oeste 0 986.1 -1.5 42
2019-09-24 17:00:00 29 10 Oeste 33 Oeste 0 986.3 -2.2 37
2019-09-24 16:00:00 28 10 Oeste 27 Sudoeste 0 986.8 -2.3 36
2019-09-24 15:00:00 27.5 10 Oeste 24 Oeste 0 987.6 -1.9 31
2019-09-24 14:00:00 26.4 9 Oeste 23 Oeste 0 988.5 -1.2 30
2019-09-24 13:00:00 24.7 9 Oeste 21 Sudoeste 0 989.1 -0.1 36
2019-09-24 12:00:00 22.9 8 Sudoeste 18 Oeste 0 989.5 0.8 45
2019-09-24 11:00:00 20.2 8 Sudoeste 17 Oeste 0 989.7 0.9 58
2019-09-24 10:00:00 18.2 8 Oeste 17 Oeste 0 989.2 0.9 63
2019-09-24 09:00:00 14.7 6 Sur 12 Sudoeste 0 988.7 0.6 71
2019-09-24 08:00:00 13.9 5 Sudoeste 14 Oeste 0 988.8 0.6 73
2019-09-24 07:00:00 14.6 6 Sudoeste 14 Sudoeste 0 988.3 0 70
2019-09-24 06:00:00 14.6 5 Sudoeste 13 Sudoeste 0 988.1 -0.3 66
2019-09-24 05:00:00 15.1 5 Sudoeste 12 Sudoeste 0 988.2 -0.2 62
2019-09-24 04:00:00 16.2 4 Sudoeste 10 Sudoeste 0 988.3 -0.2 53
2019-09-24 03:00:00 17 5 Sudoeste 8 Sudoeste 0 988.4 -0.3 45
2019-09-24 02:00:00 17.4 4 Sur 7 Sur 0 988.4 -0.2 43
2019-09-24 01:00:00 17.9 3 Sur 7 Sur 0 988.5 0.1 50
2019-09-24 00:00:00 18.5 3 Sur 7 Sudeste 0 988.7 0.7 47
2019-09-23 23:00:00 19.4 4 Sur 8 Sur 0 988.6 0.8 40
2019-09-23 22:00:00 20.5 3 Oeste 8 Oeste 0 988.4 0.7 38
2019-09-23 21:00:00 22 3 Oeste 8 Oeste 0 988 0.1 29
2019-09-23 20:00:00 24.7 5 Oeste 11 Oeste 0 987.8 -0.1 27
2019-09-23 19:00:00 26.3 5 Noroeste 15 Noroeste 0 987.7 -0.4 25
2019-09-23 18:00:00 26.8 7 Noroeste 19 Noroeste 0 987.9 -0.8 26
2019-09-23 17:00:00 27.4 5 Oeste 14 Noroeste 0 987.9 -1.3 22
2019-09-23 16:00:00 26.3 6 Noroeste 16 Noroeste 0 988.1 -1.6 27
2019-09-23 15:00:00 25.6 5 Sudoeste 17 Sudoeste 0 988.7 -1.1 32
2019-09-23 14:00:00 23.8 5 Norte 14 Norte 0 989.2 -0.7 38
2019-09-23 13:00:00 23.1 3 Sur 12 Noroeste 0 989.7 0.1 40
2019-09-23 12:00:00 20.6 4 Noroeste 12 Sudoeste 0 989.8 0.5 53
2019-09-23 11:00:00 18.1 6 Oeste 15 Oeste 0 989.9 1.4 64
2019-09-23 10:00:00 15.6 5 Sudoeste 10 Sudoeste 0 989.6 1.6 76
2019-09-23 09:00:00 13.5 3 Sudoeste 10 Oeste 0 989.3 1.5 81
2019-09-23 08:00:00 12.9 6 Sudoeste 11 Sudoeste 0 988.5 1.1 83
2019-09-23 07:00:00 13.3 6 Sudoeste 10 Oeste 0 988 0.7 81
2019-09-23 06:00:00 13.5 5 Sudoeste 12 Sudoeste 0 987.8 0.5 80
2019-09-23 05:00:00 13.7 7 Sudoeste 12 Sur 0 987.4 0.3 78
2019-09-23 04:00:00 14.7 4 Oeste 10 Oeste 0 987.3 -0.1 75
2019-09-23 03:00:00 15.1 6 Sudoeste 10 Sudoeste 0 987.3 0.2 70
2019-09-23 02:00:00 15.9 7 Sudoeste 12 Sur 0 987.1 0.2 65
2019-09-23 01:00:00 16.7 5 Sur 9 Sur 0 987.4 1 63
2019-09-23 00:00:00 17.2 3 Sur 8 Sudoeste 0 987.1 1.4 64
2019-09-22 23:00:00 18 2 Sur 7 Sudoeste 0 986.9 1.8 61
2019-09-22 22:00:00 18.9 4 Sudoeste 8 Oeste 0 986.4 1.6 57
2019-09-22 21:00:00 19.9 4 Oeste 11 Oeste 0 985.7 1.1 51
2019-09-22 20:00:00 21.9 3 Oeste 19 Oeste 0 985.1 0.3 45
2019-09-22 19:00:00 23.7 6 Oeste 25 Oeste 0 984.8 -0.1 37
2019-09-22 18:00:00 24.4 9 Oeste 32 Oeste 0 984.6 -0.4 33
2019-09-22 17:00:00 24.5 13 Oeste 29 Oeste 0 984.8 -0.5 36
2019-09-22 16:00:00 23 8 Oeste 25 Sudoeste 0 984.9 -0.3 44
2019-09-22 15:00:00 23.5 10 Oeste 28 Oeste 0 985 -0.1 48
2019-09-22 14:00:00 22 8 Oeste 24 Sudoeste 0 985.3 0.4 56
2019-09-22 13:00:00 20 7 Oeste 20 Noroeste 0 985.2 0.5 65
2019-09-22 12:00:00 18.9 8 Oeste 19 Noroeste 0.2 985.1 1.2 73
2019-09-22 11:00:00 16.9 7 Oeste 20 Noroeste 0 984.9 1.8 82
2019-09-22 10:00:00 15.6 8 Oeste 25 Sudoeste 0 984.7 2.6 91
2019-09-22 09:00:00 14.6 11 Oeste 23 Sudoeste 0 983.9 2.5 92
2019-09-22 08:00:00 14.8 9 Oeste 17 Sudoeste 0 983.1 1.7 90
2019-09-22 07:00:00 16.2 9 Oeste 25 Oeste 0 982.1 0.8 89
2019-09-22 06:00:00 17.9 10 Sudoeste 23 Oeste 0.4 981.4 -0.1 92
2019-09-22 05:00:00 18.4 7 Oeste 14 Noroeste 0.4 981.4 -0.2 89
2019-09-22 04:00:00 19.1 6 Sur 15 Sur 0 981.3 0.2 83
2019-09-22 03:00:00 19.1 7 Sur 30 Sudoeste 0 981.5 0.2 85
2019-09-22 02:00:00 19.8 12 Sudoeste 37 Sudoeste 0 981.6 0.5 81
2019-09-22 01:00:00 20.1 2 Sur 14 Sur 0 981.1 0.2 82
2019-09-22 00:00:00 20.6 6 Sur 20 Sur 0 981.3 1.2 77
2019-09-21 23:00:00 20.5 9 Sudoeste 35 Sudoeste 0.8 981.1 0.9 79
2019-09-21 22:00:00 22 9 Sur 19 Sudoeste 0 980.9 0.7 65
2019-09-21 21:00:00 22.5 8 Sur 27 Sur 0 980.1 -0.4 62
2019-09-21 20:00:00 23.4 11 Sudoeste 24 Sur 0 980.2 -0.6 57
2019-09-21 19:00:00 23.9 13 Sur 29 Sudoeste 0 980.2 -1 56
2019-09-21 18:00:00 24.1 14 Sudoeste 29 Sudoeste 0 980.5 -0.6 54
2019-09-21 17:00:00 23.7 15 Sudoeste 34 Sudoeste 0 980.8 -0.7 60
2019-09-21 16:00:00 22.7 18 Sudoeste 32 Sudoeste 0 981.2 -1 64
2019-09-21 15:00:00 22.8 8 Sudoeste 18 Sudoeste 0 981.1 -1.1 61
2019-09-21 14:00:00 22 9 Sur 22 Sudoeste 0 981.5 -0.7 58
2019-09-21 13:00:00 21.8 10 Sudoeste 22 Sudoeste 0 982.2 0.6 57
2019-09-21 12:00:00 21.7 8 Sur 16 Sudoeste 0 982.2 1.1 60
2019-09-21 11:00:00 20.5 5 Sur 9 Sur 0.2 982.2 1.3 73
2019-09-21 10:00:00 19.7 3 Sur 7 Sudeste 0 981.6 0.8 77
2019-09-21 09:00:00 18.8 0 Calma 5 Sudoeste 0 981.1 0 78
2019-09-21 08:00:00 18.4 3 Sudoeste 7 Sudoeste 0 980.9 -0.4 78
2019-09-21 07:00:00 18.7 3 Este 9 Este 0 980.8 -0.8 73
2019-09-21 06:00:00 18.6 0 Calma 5 Sudeste 0 981.1 -0.8 79
2019-09-21 05:00:00 18.2 0 Calma 9 Sur 0 981.3 -0.7 80
2019-09-21 04:00:00 18.3 4 Sudeste 10 Sur 0 981.6 -0.6 80
2019-09-21 03:00:00 18.2 6 Sudeste 12 Sudeste 0 981.9 -0.2 82
2019-09-21 02:00:00 18 4 Sur 13 Sur 0 982 -0.2 79
2019-09-21 01:00:00 18.5 6 Sur 13 Sudoeste 0 982.2 0.2 78
2019-09-21 00:00:00 18.6 6 Sur 13 Sur 0 982.1 1 77
2019-09-20 23:00:00 19 3 Sur 8 Oeste 0 982.2 0.8 85
2019-09-20 22:00:00 19.5 3 Sudoeste 10 Oeste 0 982 0.4 84
2019-09-20 21:00:00 20.2 2 Sudoeste 13 Sudoeste 0.2 981.1 0 82
2019-09-20 20:00:00 20.6 9 Sudoeste 14 Sudoeste 0.2 981.4 0.6 79
2019-09-20 19:00:00 21 4 Sudoeste 35 Oeste 2.2 981.6 0.5 78
2019-09-20 18:00:00 24.6 14 Oeste 34 Oeste 0 981.1 -0.4 47
2019-09-20 17:00:00 28.7 14 Sudoeste 29 Sudoeste 0 980.8 -1.3 31
2019-09-20 16:00:00 28.6 14 Sudoeste 34 Sudoeste 0 981.1 -1.5 31
2019-09-20 15:00:00 28 10 Sur 36 Sudoeste 0 981.5 -1.7 32
2019-09-20 14:00:00 27.4 9 Sur 28 Sudoeste 0 982.1 -1.3 32
2019-09-20 13:00:00 26.8 9 Sur 23 Sudoeste 0 982.6 -0.7 33
2019-09-20 12:00:00 24.9 5 Este 15 Este 0 983.2 0.3 39
2019-09-20 11:00:00 21.8 4 Nordeste 12 Nordeste 0 983.4 0.6 55
2019-09-20 10:00:00 19.4 4 Este 10 Nordeste 0 983.3 0.8 65
2019-09-20 09:00:00 17.4 3 Sudeste 6 Sudeste 0 982.9 0.4 71
2019-09-20 08:00:00 17 2 Sudeste 8 Oeste 0 982.8 0.2 72
2019-09-20 07:00:00 17.7 4 Oeste 11 Sudoeste 0 982.5 0 69
2019-09-20 06:00:00 18.1 5 Sudoeste 13 Sudoeste 0 982.5 -0.4 66
2019-09-20 05:00:00 18.8 8 Sudoeste 13 Sudoeste 0 982.6 -0.1 63
2019-09-20 04:00:00 19.5 6 Sudoeste 12 Sudoeste 0 982.5 -0.4 59
2019-09-20 03:00:00 20.1 6 Sudoeste 16 Sudoeste 0 982.9 0.1 57
2019-09-20 02:00:00 21.4 8 Sudoeste 14 Sudoeste 0 982.7 -0.2 52
2019-09-20 01:00:00 22.3 7 Sudoeste 15 Sudoeste 0 982.9 0.9 48
2019-09-20 00:00:00 22.9 6 Sudoeste 13 Sudoeste 0 982.8 1.3 42